sensor_id;sensor_type;location;lat;lon;timestamp;pressure;altitude;pressure_sealevel;temperature;humidity
53908;BME280;40469;47.998;7.794;2023-03-20T00:01:48;99269.88;;;7.44;100.00
53908;BME280;40469;47.998;7.794;2023-03-20T00:04:13;99263.81;;;7.40;100.00
53908;BME280;40469;47.998;7.794;2023-03-20T00:06:38;99269.00;;;7.40;100.00
53908;BME280;40469;47.998;7.794;2023-03-20T00:09:04;99269.84;;;7.41;100.00
53908;BME280;40469;47.998;7.794;2023-03-20T00:11:30;99267.25;;;7.38;100.00
53908;BME280;40469;47.998;7.794;2023-03-20T00:14:05;99275.09;;;7.46;100.00
53908;BME280;40469;47.998;7.794;2023-03-20T00:16:34;99279.38;;;7.39;100.00
53908;BME280;40469;47.998;7.794;2023-03-20T00:19:00;99280.22;;;7.36;100.00
53908;BME280;40469;47.998;7.794;2023-03-20T00:21:26;99284.56;;;7.37;100.00
53908;BME280;40469;47.998;7.794;2023-03-20T00:23:52;99284.56;;;7.39;100.00
53908;BME280;40469;47.998;7.794;2023-03-20T00:26:17;99288.06;;;7.39;100.00
53908;BME280;40469;47.998;7.794;2023-03-20T00:28:47;99282.88;;;7.43;100.00
53908;BME280;40469;47.998;7.794;2023-03-20T00:31:14;99283.75;;;7.45;100.00
53908;BME280;40469;47.998;7.794;2023-03-20T00:33:43;99280.25;;;7.39;100.00
53908;BME280;40469;47.998;7.794;2023-03-20T00:36:09;99288.91;;;7.38;100.00
53908;BME280;40469;47.998;7.794;2023-03-20T00:38:34;99292.38;;;7.40;100.00
53908;BME280;40469;47.998;7.794;2023-03-20T00:41:00;99294.16;;;7.43;100.00
53908;BME280;40469;47.998;7.794;2023-03-20T00:43:25;99290.66;;;7.39;100.00
53908;BME280;40469;47.998;7.794;2023-03-20T00:45:50;99299.25;;;7.35;100.00
53908;BME280;40469;47.998;7.794;2023-03-20T00:48:16;99295.84;;;7.39;100.00
53908;BME280;40469;47.998;7.794;2023-03-20T00:50:41;99295.00;;;7.44;100.00
53908;BME280;40469;47.998;7.794;2023-03-20T00:53:10;99297.59;;;7.44;100.00
53908;BME280;40469;47.998;7.794;2023-03-20T00:55:35;99295.84;;;7.41;100.00
53908;BME280;40469;47.998;7.794;2023-03-20T00:58:01;99290.63;;;7.41;100.00
53908;BME280;40469;47.998;7.794;2023-03-20T01:00:37;99299.38;;;7.48;100.00
53908;BME280;40469;47.998;7.794;2023-03-20T01:03:11;99304.59;;;7.51;100.00
53908;BME280;40469;47.998;7.794;2023-03-20T01:05:37;99295.84;;;7.39;100.00
53908;BME280;40469;47.998;7.794;2023-03-20T01:08:04;99292.50;;;7.54;100.00
53908;BME280;40469;47.998;7.794;2023-03-20T01:10:30;99298.56;;;7.58;100.00
53908;BME280;40469;47.998;7.794;2023-03-20T01:12:57;99306.38;;;7.58;100.00
53908;BME280;40469;47.998;7.794;2023-03-20T01:15:24;99298.53;;;7.55;100.00
53908;BME280;40469;47.998;7.794;2023-03-20T01:17:51;99298.56;;;7.58;100.00
53908;BME280;40469;47.998;7.794;2023-03-20T01:20:21;99296.00;;;7.59;100.00
53908;BME280;40469;47.998;7.794;2023-03-20T01:22:47;99302.88;;;7.53;100.00
53908;BME280;40469;47.998;7.794;2023-03-20T01:25:12;99309.81;;;7.57;100.00
53908;BME280;40469;47.998;7.794;2023-03-20T01:27:38;99306.34;;;7.52;100.00
53908;BME280;40469;47.998;7.794;2023-03-20T01:30:05;99308.94;;;7.52;100.00
53908;BME280;40469;47.998;7.794;2023-03-20T01:32:38;99308.03;;;7.51;100.00
53908;BME280;40469;47.998;7.794;2023-03-20T01:35:03;99314.22;;;7.63;100.00
53908;BME280;40469;47.998;7.794;2023-03-20T01:37:29;99305.56;;;7.67;100.00
53908;BME280;40469;47.998;7.794;2023-03-20T01:39:54;99312.50;;;7.69;100.00
53908;BME280;40469;47.998;7.794;2023-03-20T01:42:19;99318.63;;;7.71;100.00
53908;BME280;40469;47.998;7.794;2023-03-20T01:44:45;99308.16;;;7.65;100.00
53908;BME280;40469;47.998;7.794;2023-03-20T01:47:14;99310.78;;;7.67;100.00
53908;BME280;40469;47.998;7.794;2023-03-20T01:52:24;99310.75;;;7.65;100.00
53908;BME280;40469;47.998;7.794;2023-03-20T01:54:49;99315.06;;;7.60;100.00
53908;BME280;40469;47.998;7.794;2023-03-20T01:57:19;99318.63;;;7.71;100.00
53908;BME280;40469;47.998;7.794;2023-03-20T01:59:50;99322.03;;;7.69;100.00
53908;BME280;40469;47.998;7.794;2023-03-20T02:02:17;99324.75;;;7.83;100.00
53908;BME280;40469;47.998;7.794;2023-03-20T02:04:44;99318.63;;;7.71;100.00
53908;BME280;40469;47.998;7.794;2023-03-20T02:07:10;99333.38;;;7.77;100.00
53908;BME280;40469;47.998;7.794;2023-03-20T02:09:37;99334.25;;;7.79;100.00
53908;BME280;40469;47.998;7.794;2023-03-20T02:12:02;99336.84;;;7.79;100.00
53908;BME280;40469;47.998;7.794;2023-03-20T02:14:28;99329.06;;;7.81;100.00
53908;BME280;40469;47.998;7.794;2023-03-20T02:16:54;99340.34;;;7.83;100.00
53908;BME280;40469;47.998;7.794;2023-03-20T02:19:23;99339.47;;;7.79;100.00
53908;BME280;40469;47.998;7.794;2023-03-20T02:35:06;99331.41;;;7.45;100.00
53908;BME280;40469;47.998;7.794;2023-03-20T02:45:28;99344.41;;;7.51;100.00
53908;BME280;40469;47.998;7.794;2023-03-20T02:47:59;99351.34;;;7.51;100.00
53908;BME280;40469;47.998;7.794;2023-03-20T02:57:53;99363.53;;;7.58;100.00
53908;BME280;40469;47.998;7.794;2023-03-20T03:02:52;99359.13;;;7.49;100.00
53908;BME280;40469;47.998;7.794;2023-03-20T03:05:21;99364.28;;;7.43;100.00
53908;BME280;40469;47.998;7.794;2023-03-20T03:07:48;99359.06;;;7.45;100.00
53908;BME280;40469;47.998;7.794;2023-03-20T03:12:42;99357.28;;;7.36;100.00
53908;BME280;40469;47.998;7.794;2023-03-20T03:15:27;99366.84;;;7.38;100.00
53908;BME280;40469;47.998;7.794;2023-03-20T03:17:55;99377.19;;;7.35;100.00
53908;BME280;40469;47.998;7.794;2023-03-20T03:20:23;99374.59;;;7.35;100.00
53908;BME280;40469;47.998;7.794;2023-03-20T03:22:49;99371.06;;;7.29;100.00
53908;BME280;40469;47.998;7.794;2023-03-20T03:25:15;99378.84;;;7.26;100.00
53908;BME280;40469;47.998;7.794;2023-03-20T03:27:41;99377.94;;;7.22;100.00
53908;BME280;40469;47.998;7.794;2023-03-20T03:30:17;99382.97;;;7.07;100.00
53908;BME280;40469;47.998;7.794;2023-03-20T03:35:45;99389.91;;;7.08;100.00
53908;BME280;40469;47.998;7.794;2023-03-20T03:38:25;99393.25;;;7.00;100.00
53908;BME280;40469;47.998;7.794;2023-03-20T03:46:10;99387.25;;;7.03;100.00
53908;BME280;40469;47.998;7.794;2023-03-20T03:48:39;99387.22;;;7.01;100.00
53908;BME280;40469;47.998;7.794;2023-03-20T03:51:12;99386.31;;;6.98;100.00
53908;BME280;40469;47.998;7.794;2023-03-20T03:53:46;99388.16;;;7.08;100.00
53908;BME280;40469;47.998;7.794;2023-03-20T03:56:13;99395.88;;;7.02;100.00
53908;BME280;40469;47.998;7.794;2023-03-20T03:58:44;99388.91;;;6.98;100.00
53908;BME280;40469;47.998;7.794;2023-03-20T04:01:12;99382.91;;;7.03;100.00
53908;BME280;40469;47.998;7.794;2023-03-20T04:03:39;99384.66;;;7.05;100.00
53908;BME280;40469;47.998;7.794;2023-03-20T04:06:05;99375.97;;;7.04;100.00
53908;BME280;40469;47.998;7.794;2023-03-20T04:08:34;99381.97;;;6.95;100.00
53908;BME280;40469;47.998;7.794;2023-03-20T04:10:59;99373.31;;;6.96;100.00
53908;BME280;40469;47.998;7.794;2023-03-20T04:13:24;99373.25;;;6.89;100.00
53908;BME280;40469;47.998;7.794;2023-03-20T04:15:50;99368.03;;;6.87;100.00
53908;BME280;40469;47.998;7.794;2023-03-20T04:18:16;99369.66;;;6.80;100.00
53908;BME280;40469;47.998;7.794;2023-03-20T04:20:42;99368.88;;;6.86;100.00
53908;BME280;40469;47.998;7.794;2023-03-20T04:23:07;99362.09;;;6.97;100.00
53908;BME280;40469;47.998;7.794;2023-03-20T04:25:33;99365.47;;;6.93;100.00
53908;BME280;40469;47.998;7.794;2023-03-20T04:27:58;99357.69;;;6.92;100.00
53908;BME280;40469;47.998;7.794;2023-03-20T04:30:23;99360.34;;;6.96;100.00
53908;BME280;40469;47.998;7.794;2023-03-20T04:32:48;99364.63;;;6.93;100.00
53908;BME280;40469;47.998;7.794;2023-03-20T04:35:14;99362.94;;;6.96;100.00
53908;BME280;40469;47.998;7.794;2023-03-20T04:37:39;99369.00;;;6.98;100.00
53908;BME280;40469;47.998;7.794;2023-03-20T04:40:04;99373.41;;;7.06;100.00
53908;BME280;40469;47.998;7.794;2023-03-20T04:42:30;99377.78;;;7.08;100.00
53908;BME280;40469;47.998;7.794;2023-03-20T04:44:55;99371.75;;;7.11;100.00
53908;BME280;40469;47.998;7.794;2023-03-20T04:47:20;99381.31;;;7.13;100.00
53908;BME280;40469;47.998;7.794;2023-03-20T04:49:45;99384.00;;;7.22;100.00
53908;BME280;40469;47.998;7.794;2023-03-20T04:52:11;99395.25;;;7.23;100.00
53908;BME280;40469;47.998;7.794;2023-03-20T04:54:36;99394.34;;;7.19;100.00
53908;BME280;40469;47.998;7.794;2023-03-20T04:57:01;99398.72;;;7.22;100.00
53908;BME280;40469;47.998;7.794;2023-03-20T04:59:26;99396.94;;;7.19;100.00
53908;BME280;40469;47.998;7.794;2023-03-20T05:01:51;99381.34;;;7.19;100.00
53908;BME280;40469;47.998;7.794;2023-03-20T05:04:17;99378.72;;;7.13;100.00
53908;BME280;40469;47.998;7.794;2023-03-20T05:06:42;99368.31;;;7.13;100.00
53908;BME280;40469;47.998;7.794;2023-03-20T05:09:08;99370.00;;;7.08;100.00
53908;BME280;40469;47.998;7.794;2023-03-20T05:11:33;99362.19;;;7.07;100.00
53908;BME280;40469;47.998;7.794;2023-03-20T05:13:58;99369.13;;;7.08;100.00
53908;BME280;40469;47.998;7.794;2023-03-20T05:16:24;99381.25;;;7.10;100.00
53908;BME280;40469;47.998;7.794;2023-03-20T05:18:49;99383.94;;;7.18;100.00
53908;BME280;40469;47.998;7.794;2023-03-20T05:21:14;99397.00;;;7.24;100.00
53908;BME280;40469;47.998;7.794;2023-03-20T05:23:40;99397.03;;;7.27;100.00
53908;BME280;40469;47.998;7.794;2023-03-20T05:26:05;99397.88;;;7.26;100.00
53908;BME280;40469;47.998;7.794;2023-03-20T05:28:31;99397.03;;;7.27;100.00
53908;BME280;40469;47.998;7.794;2023-03-20T05:30:56;99393.53;;;7.25;100.00
53908;BME280;40469;47.998;7.794;2023-03-20T05:33:22;99398.72;;;7.22;100.00
53908;BME280;40469;47.998;7.794;2023-03-20T05:35:47;99404.75;;;7.21;100.00
53908;BME280;40469;47.998;7.794;2023-03-20T05:38:12;99409.97;;;7.24;100.00
53908;BME280;40469;47.998;7.794;2023-03-20T05:40:38;99412.56;;;7.22;100.00
53908;BME280;40469;47.998;7.794;2023-03-20T05:43:03;99412.47;;;7.15;100.00
53908;BME280;40469;47.998;7.794;2023-03-20T05:45:29;99412.44;;;7.12;100.00
53908;BME280;40469;47.998;7.794;2023-03-20T05:47:54;99422.72;;;7.02;100.00
53908;BME280;40469;47.998;7.794;2023-03-20T05:50:20;99425.38;;;7.09;100.00
53908;BME280;40469;47.998;7.794;2023-03-20T05:52:46;99419.34;;;7.10;100.00
53908;BME280;40469;47.998;7.794;2023-03-20T05:55:12;99425.34;;;7.06;100.00
53908;BME280;40469;47.998;7.794;2023-03-20T05:57:37;99430.56;;;7.09;100.00
53908;BME280;40469;47.998;7.794;2023-03-20T06:00:02;99424.44;;;7.03;100.00
53908;BME280;40469;47.998;7.794;2023-03-20T06:02:29;99430.50;;;7.01;100.00
53908;BME280;40469;47.998;7.794;2023-03-20T06:04:54;99420.13;;;7.04;100.00
53908;BME280;40469;47.998;7.794;2023-03-20T06:07:20;99430.38;;;6.93;100.00
53908;BME280;40469;47.998;7.794;2023-03-20T06:09:45;99430.38;;;6.93;100.00
53908;BME280;40469;47.998;7.794;2023-03-20T06:12:11;99419.13;;;6.91;100.00
53908;BME280;40469;47.998;7.794;2023-03-20T06:14:36;99413.13;;;6.98;100.00
53908;BME280;40469;47.998;7.794;2023-03-20T06:17:01;99414.00;;;6.97;100.00
53908;BME280;40469;47.998;7.794;2023-03-20T06:19:27;99410.53;;;6.98;100.00
53908;BME280;40469;47.998;7.794;2023-03-20T06:21:52;99416.63;;;7.02;100.00
53908;BME280;40469;47.998;7.794;2023-03-20T06:24:17;99415.81;;;7.03;100.00
53908;BME280;40469;47.998;7.794;2023-03-20T06:26:42;99417.53;;;7.02;100.00
53908;BME280;40469;47.998;7.794;2023-03-20T06:29:08;99422.81;;;7.12;100.00
53908;BME280;40469;47.998;7.794;2023-03-20T06:31:33;99422.03;;;7.17;100.00
53908;BME280;40469;47.998;7.794;2023-03-20T06:33:58;99434.97;;;7.14;100.00
53908;BME280;40469;47.998;7.794;2023-03-20T06:36:24;99428.19;;;7.26;100.00
53908;BME280;40469;47.998;7.794;2023-03-20T06:38:49;99431.66;;;7.28;100.00
53908;BME280;40469;47.998;7.794;2023-03-20T06:41:14;99437.81;;;7.34;100.00
53908;BME280;40469;47.998;7.794;2023-03-20T06:43:40;99428.34;;;7.43;100.00
53908;BME280;40469;47.998;7.794;2023-03-20T06:46:07;99437.91;;;7.45;100.00
53908;BME280;40469;47.998;7.794;2023-03-20T06:48:32;99442.28;;;7.49;100.00
53908;BME280;40469;47.998;7.794;2023-03-20T06:50:57;99453.56;;;7.51;100.00
53908;BME280;40469;47.998;7.794;2023-03-20T06:53:23;99451.94;;;7.61;100.00
53908;BME280;40469;47.998;7.794;2023-03-20T06:55:48;99450.22;;;7.63;100.00
53908;BME280;40469;47.998;7.794;2023-03-20T06:58:14;99452.06;;;7.73;100.00
53908;BME280;40469;47.998;7.794;2023-03-20T07:00:39;99450.38;;;7.80;100.00
53908;BME280;40469;47.998;7.794;2023-03-20T07:03:05;99454.88;;;7.98;100.00
53908;BME280;40469;47.998;7.794;2023-03-20T07:05:30;99469.56;;;7.97;100.00
53908;BME280;40469;47.998;7.794;2023-03-20T07:07:56;99463.50;;;7.97;100.00
53908;BME280;40469;47.998;7.794;2023-03-20T07:10:21;99468.78;;;8.03;100.00
53908;BME280;40469;47.998;7.794;2023-03-20T07:12:47;99470.47;;;8.01;100.00
53908;BME280;40469;47.998;7.794;2023-03-20T07:15:13;99465.28;;;7.98;100.00
53908;BME280;40469;47.998;7.794;2023-03-20T07:17:38;99473.19;;;8.10;100.00
53908;BME280;40469;47.998;7.794;2023-03-20T07:20:03;99473.22;;;8.16;100.00
53908;BME280;40469;47.998;7.794;2023-03-20T07:22:29;99474.03;;;8.09;100.00
53908;BME280;40469;47.998;7.794;2023-03-20T07:24:55;99474.16;;;8.25;100.00
53908;BME280;40469;47.998;7.794;2023-03-20T07:27:21;99486.28;;;8.26;100.00
53908;BME280;40469;47.998;7.794;2023-03-20T07:29:46;99496.81;;;8.40;100.00
53908;BME280;40469;47.998;7.794;2023-03-20T07:32:11;99497.53;;;8.22;100.00
53908;BME280;40469;47.998;7.794;2023-03-20T07:34:36;99502.69;;;8.19;100.00
53908;BME280;40469;47.998;7.794;2023-03-20T07:37:02;99498.47;;;8.28;100.00
53908;BME280;40469;47.998;7.794;2023-03-20T07:39:27;99505.50;;;8.40;100.00
53908;BME280;40469;47.998;7.794;2023-03-20T07:41:52;99504.47;;;8.21;100.00
53908;BME280;40469;47.998;7.794;2023-03-20T07:44:18;99502.81;;;8.31;100.00
53908;BME280;40469;47.998;7.794;2023-03-20T07:46:43;99514.13;;;8.33;100.00
53908;BME280;40469;47.998;7.794;2023-03-20T07:49:11;99501.97;;;8.32;100.00
53908;BME280;40469;47.998;7.794;2023-03-20T07:51:36;99497.66;;;8.37;100.00
53908;BME280;40469;47.998;7.794;2023-03-20T07:54:02;99504.38;;;8.13;100.00
53908;BME280;40469;47.998;7.794;2023-03-20T07:56:27;99503.63;;;8.24;100.00
53908;BME280;40469;47.998;7.794;2023-03-20T07:58:52;99498.50;;;8.31;100.00
53908;BME280;40469;47.998;7.794;2023-03-20T08:01:18;99489.00;;;8.40;100.00
53908;BME280;40469;47.998;7.794;2023-03-20T08:03:43;99492.50;;;8.40;100.00
53908;BME280;40469;47.998;7.794;2023-03-20T08:06:08;99495.19;;;8.54;100.00
53908;BME280;40469;47.998;7.794;2023-03-20T08:08:33;99488.38;;;8.68;100.00
53908;BME280;40469;47.998;7.794;2023-03-20T08:10:59;99494.53;;;8.81;100.00
53908;BME280;40469;47.998;7.794;2023-03-20T08:13:24;99490.00;;;8.56;100.00
53908;BME280;40469;47.998;7.794;2023-03-20T08:15:50;99494.44;;;8.69;100.00
53908;BME280;40469;47.998;7.794;2023-03-20T08:18:15;99490.06;;;8.60;100.00
53908;BME280;40469;47.998;7.794;2023-03-20T08:20:40;99490.06;;;8.60;100.00
53908;BME280;40469;47.998;7.794;2023-03-20T08:23:06;99490.97;;;8.68;100.00
53908;BME280;40469;47.998;7.794;2023-03-20T08:25:31;99490.13;;;8.71;100.00
53908;BME280;40469;47.998;7.794;2023-03-20T08:27:58;99484.16;;;8.94;100.00
53908;BME280;40469;47.998;7.794;2023-03-20T08:30:24;99486.81;;;9.01;100.00
53908;BME280;40469;47.998;7.794;2023-03-20T08:32:51;99486.81;;;8.97;100.00
53908;BME280;40469;47.998;7.794;2023-03-20T08:35:16;99479.78;;;8.85;100.00
53908;BME280;40469;47.998;7.794;2023-03-20T08:37:41;99483.31;;;8.96;100.00
53908;BME280;40469;47.998;7.794;2023-03-20T08:40:06;99490.38;;;9.14;100.00
53908;BME280;40469;47.998;7.794;2023-03-20T08:42:32;99484.22;;;9.03;100.00
53908;BME280;40469;47.998;7.794;2023-03-20T08:44:57;99480.00;;;9.31;100.00
53908;BME280;40469;47.998;7.794;2023-03-20T08:47:22;99475.72;;;9.50;100.00
53908;BME280;40469;47.998;7.794;2023-03-20T08:49:47;99481.84;;;9.75;100.00
53908;BME280;40469;47.998;7.794;2023-03-20T08:52:13;99477.53;;;10.16;100.00
53908;BME280;40469;47.998;7.794;2023-03-20T08:54:38;99473.19;;;9.99;100.00
53908;BME280;40469;47.998;7.794;2023-03-20T08:57:03;99487.13;;;10.17;100.00
53908;BME280;40469;47.998;7.794;2023-03-20T08:59:29;99486.25;;;10.21;100.00
53908;BME280;40469;47.998;7.794;2023-03-20T09:01:55;99478.41;;;10.25;100.00
53908;BME280;40469;47.998;7.794;2023-03-20T09:04:20;99483.66;;;10.32;100.00
53908;BME280;40469;47.998;7.794;2023-03-20T09:06:45;99490.59;;;10.51;100.00
53908;BME280;40469;47.998;7.794;2023-03-20T09:09:11;99485.38;;;10.37;100.00
53908;BME280;40469;47.998;7.794;2023-03-20T09:11:39;99487.97;;;10.68;100.00
53908;BME280;40469;47.998;7.794;2023-03-20T09:14:06;99488.00;;;10.36;100.00
53908;BME280;40469;47.998;7.794;2023-03-20T09:16:31;99491.44;;;10.70;100.00
53908;BME280;40469;47.998;7.794;2023-03-20T09:18:57;99486.16;;;10.98;100.00
53908;BME280;40469;47.998;7.794;2023-03-20T09:21:22;99488.69;;;11.16;100.00
53908;BME280;40469;47.998;7.794;2023-03-20T09:23:47;99498.19;;;11.39;100.00
53908;BME280;40469;47.998;7.794;2023-03-20T09:26:12;99493.03;;;11.28;100.00
53908;BME280;40469;47.998;7.794;2023-03-20T09:28:38;99504.50;;;10.86;100.00
53908;BME280;40469;47.998;7.794;2023-03-20T09:31:03;99500.00;;;11.17;100.00
53908;BME280;40469;47.998;7.794;2023-03-20T09:33:28;99503.56;;;11.08;100.00
53908;BME280;40469;47.998;7.794;2023-03-20T09:35:53;99500.00;;;11.26;100.00
53908;BME280;40469;47.998;7.794;2023-03-20T09:38:19;99495.53;;;11.50;100.00
53908;BME280;40469;47.998;7.794;2023-03-20T09:40:49;99492.78;;;11.70;100.00
53908;BME280;40469;47.998;7.794;2023-03-20T09:45:47;99502.09;;;12.22;100.00
53908;BME280;40469;47.998;7.794;2023-03-20T09:53:41;99491.16;;;12.73;100.00
53908;BME280;40469;47.998;7.794;2023-03-20T09:56:12;99490.56;;;12.44;100.00
53908;BME280;40469;47.998;7.794;2023-03-20T09:58:38;99492.53;;;12.14;100.00
53908;BME280;40469;47.998;7.794;2023-03-20T10:01:05;99497.06;;;11.86;100.00
53908;BME280;40469;47.998;7.794;2023-03-20T10:03:41;99492.66;;;11.94;100.00
53908;BME280;40469;47.998;7.794;2023-03-20T10:06:11;99487.78;;;12.58;100.00
53908;BME280;40469;47.998;7.794;2023-03-20T10:08:37;99492.47;;;13.12;100.00
53908;BME280;40469;47.998;7.794;2023-03-20T10:11:19;99487.59;;;12.81;100.00
53908;BME280;40469;47.998;7.794;2023-03-20T10:14:00;99489.66;;;12.44;100.00
53908;BME280;40469;47.998;7.794;2023-03-20T10:19:05;99492.59;;;12.07;100.00
53908;BME280;40469;47.998;7.794;2023-03-20T10:21:36;99494.25;;;12.20;100.00
53908;BME280;40469;47.998;7.794;2023-03-20T10:24:05;99492.66;;;12.01;100.00
53908;BME280;40469;47.998;7.794;2023-03-20T10:26:36;99497.06;;;11.91;100.00
53908;BME280;40469;47.998;7.794;2023-03-20T10:31:47;99489.38;;;11.65;100.00
53908;BME280;40469;47.998;7.794;2023-03-20T10:34:18;99493.75;;;11.60;100.00
53908;BME280;40469;47.998;7.794;2023-03-20T10:39:36;99503.38;;;11.47;100.00
53908;BME280;40469;47.998;7.794;2023-03-20T10:42:27;99500.75;;;11.45;100.00
53908;BME280;40469;47.998;7.794;2023-03-20T10:45:17;99510.31;;;11.54;100.00
53908;BME280;40469;47.998;7.794;2023-03-20T10:47:40;99502.44;;;11.63;100.00
53908;BME280;40469;47.998;7.794;2023-03-20T10:50:07;99506.00;;;11.50;100.00
53908;BME280;40469;47.998;7.794;2023-03-20T10:52:37;99506.81;;;11.60;100.00
53908;BME280;40469;47.998;7.794;2023-03-20T10:55:05;99507.69;;;11.60;100.00
53908;BME280;40469;47.998;7.794;2023-03-20T10:57:33;99504.16;;;11.66;100.00
53908;BME280;40469;47.998;7.794;2023-03-20T10:59:59;99498.94;;;11.61;100.00
53908;BME280;40469;47.998;7.794;2023-03-20T11:02:28;99492.84;;;11.65;100.00
53908;BME280;40469;47.998;7.794;2023-03-20T11:04:54;99501.47;;;11.78;100.00
53908;BME280;40469;47.998;7.794;2023-03-20T11:07:38;99493.50;;;12.01;100.00
53908;BME280;40469;47.998;7.794;2023-03-20T11:12:30;99488.84;;;12.39;100.00
53908;BME280;40469;47.998;7.794;2023-03-20T11:14:58;99482.75;;;12.38;100.00
53908;BME280;40469;47.998;7.794;2023-03-20T11:17:24;99483.75;;;12.25;100.00
53908;BME280;40469;47.998;7.794;2023-03-20T11:19:52;99483.56;;;12.45;100.00
53908;BME280;40469;47.998;7.794;2023-03-20T11:24:46;99483.09;;;12.91;100.00
53908;BME280;40469;47.998;7.794;2023-03-20T11:27:16;99482.81;;;13.16;100.00
53908;BME280;40469;47.998;7.794;2023-03-20T11:29:45;99480.22;;;13.13;100.00
53908;BME280;40469;47.998;7.794;2023-03-20T11:37:47;99475.81;;;12.31;100.00
53908;BME280;40469;47.998;7.794;2023-03-20T11:40:14;99468.88;;;12.28;100.00
53908;BME280;40469;47.998;7.794;2023-03-20T11:42:50;99472.38;;;12.27;100.00
53908;BME280;40469;47.998;7.794;2023-03-20T11:45:16;99470.66;;;12.22;100.00
53908;BME280;40469;47.998;7.794;2023-03-20T11:47:42;99471.69;;;12.04;100.00
53908;BME280;40469;47.998;7.794;2023-03-20T11:50:55;99474.38;;;11.90;100.00
53908;BME280;40469;47.998;7.794;2023-03-20T11:52:59;99464.78;;;11.93;100.00
53908;BME280;40469;47.998;7.794;2023-03-20T11:55:26;99471.75;;;11.88;100.00
53908;BME280;40469;47.998;7.794;2023-03-20T11:57:54;99462.25;;;11.76;100.00
53908;BME280;40469;47.998;7.794;2023-03-20T12:00:20;99464.91;;;11.69;100.00
53908;BME280;40469;47.998;7.794;2023-03-20T12:02:47;99463.06;;;11.83;100.00
53908;BME280;40469;47.998;7.794;2023-03-20T12:05:22;99457.75;;;12.00;100.00
53908;BME280;40469;47.998;7.794;2023-03-20T12:07:51;99463.69;;;12.19;100.00
53908;BME280;40469;47.998;7.794;2023-03-20T12:10:21;99463.50;;;12.42;100.00
53908;BME280;40469;47.998;7.794;2023-03-20T12:12:48;99455.59;;;12.47;100.00
53908;BME280;40469;47.998;7.794;2023-03-20T12:15:17;99458.97;;;12.58;100.00
53908;BME280;40469;47.998;7.794;2023-03-20T12:20:37;99455.63;;;12.45;100.00
53908;BME280;40469;47.998;7.794;2023-03-20T12:31:05;99439.13;;;12.36;100.00
53908;BME280;40469;47.998;7.794;2023-03-20T12:33:50;99422.47;;;12.43;100.00
53908;BME280;40469;47.998;7.794;2023-03-20T12:36:17;99423.19;;;12.60;100.00
53908;BME280;40469;47.998;7.794;2023-03-20T12:38:45;99423.19;;;12.60;100.00
53908;BME280;40469;47.998;7.794;2023-03-20T12:41:15;99415.72;;;12.19;100.00
53908;BME280;40469;47.998;7.794;2023-03-20T12:52:01;99395.78;;;12.87;100.00
53908;BME280;40469;47.998;7.794;2023-03-20T12:54:34;99398.66;;;12.64;100.00
53908;BME280;40469;47.998;7.794;2023-03-20T12:59:59;99392.50;;;12.67;100.00
53908;BME280;40469;47.998;7.794;2023-03-20T13:07:21;99387.66;;;13.07;100.00
53908;BME280;40469;47.998;7.794;2023-03-20T13:09:55;99385.75;;;13.22;100.00
53908;BME280;40469;47.998;7.794;2023-03-20T13:12:28;99377.91;;;13.19;100.00
53908;BME280;40469;47.998;7.794;2023-03-20T13:27:57;99360.75;;;13.57;100.00
53908;BME280;40469;47.998;7.794;2023-03-20T13:30:28;99358.88;;;13.65;100.00
53908;BME280;40469;47.998;7.794;2023-03-20T13:33:12;99358.25;;;13.51;100.00
53908;BME280;40469;47.998;7.794;2023-03-20T13:40:41;99357.16;;;13.00;100.00
53908;BME280;40469;47.998;7.794;2023-03-20T13:45:55;99350.25;;;12.95;100.00
53908;BME280;40469;47.998;7.794;2023-03-20T13:48:40;99360.16;;;12.74;100.00
53908;BME280;40469;47.998;7.794;2023-03-20T13:56:15;99348.81;;;12.70;100.00
53908;BME280;40469;47.998;7.794;2023-03-20T13:58:48;99351.53;;;12.61;100.00
53908;BME280;40469;47.998;7.794;2023-03-20T14:01:24;99347.06;;;12.73;100.00
53908;BME280;40469;47.998;7.794;2023-03-20T14:03:54;99348.75;;;12.77;100.00
53908;BME280;40469;47.998;7.794;2023-03-20T14:08:54;99337.34;;;12.81;100.00
53908;BME280;40469;47.998;7.794;2023-03-20T14:13:46;99335.66;;;12.75;100.00
53908;BME280;40469;47.998;7.794;2023-03-20T14:16:13;99334.81;;;12.73;100.00
53908;BME280;40469;47.998;7.794;2023-03-20T14:18:39;99330.66;;;12.57;100.00
53908;BME280;40469;47.998;7.794;2023-03-20T14:21:12;99327.09;;;12.62;100.00
53908;BME280;40469;47.998;7.794;2023-03-20T14:23:38;99327.97;;;12.60;100.00
53908;BME280;40469;47.998;7.794;2023-03-20T14:26:48;99334.19;;;12.52;100.00
53908;BME280;40469;47.998;7.794;2023-03-20T14:31:21;99328.88;;;12.60;100.00
53908;BME280;40469;47.998;7.794;2023-03-20T14:33:52;99326.97;;;12.73;100.00
53908;BME280;40469;47.998;7.794;2023-03-20T14:48:59;99328.47;;;12.89;100.00
53908;BME280;40469;47.998;7.794;2023-03-20T14:51:39;99329.25;;;12.99;100.00
53908;BME280;40469;47.998;7.794;2023-03-20T14:56:46;99325.22;;;13.36;100.00
53908;BME280;40469;47.998;7.794;2023-03-20T14:59:12;99315.97;;;13.10;100.00
53908;BME280;40469;47.998;7.794;2023-03-20T15:06:29;99322.19;;;13.62;100.00
53908;BME280;40469;47.998;7.794;2023-03-20T15:08:59;99310.06;;;14.06;100.00
53908;BME280;40469;47.998;7.794;2023-03-20T15:11:26;99311.84;;;13.54;100.00
53908;BME280;40469;47.998;7.794;2023-03-20T15:13:52;99302.19;;;13.55;100.00
53908;BME280;40469;47.998;7.794;2023-03-20T15:16:28;99307.50;;;13.52;100.00
53908;BME280;40469;47.998;7.794;2023-03-20T15:18:54;99306.13;;;13.26;100.00
53908;BME280;40469;47.998;7.794;2023-03-20T15:21:21;99304.19;;;13.40;100.00
53908;BME280;40469;47.998;7.794;2023-03-20T15:23:52;99311.38;;;13.26;100.00
53908;BME280;40469;47.998;7.794;2023-03-20T15:26:17;99303.25;;;13.44;100.00
53908;BME280;40469;47.998;7.794;2023-03-20T15:28:44;99309.25;;;13.53;100.00
53908;BME280;40469;47.998;7.794;2023-03-20T15:33:55;99301.38;;;13.51;100.00